РПИ Минск

Обслуживание воздушного движения в воздушном пространстве Республики Беларусь осуществляется Минским районным и аэродромным диспетчерским центром, а также службами воздушного движения в аэропортах при тесном взаимодействии со смежными диспетчерскими центрами и другими органами, участвующими в обеспечении полетов. Благодаря согласованным действиям полеты воздушных судов осуществляются по кратчайшим расстояниям, на экономичных высотах и режимах полета. Управление воздушным движением осуществляется на площади 207,6 кв. км, а протяженность воздушных трасс составляет 25 000 км.

В воздушном пространстве Республики Беларусь в узловых диспетчерских районах установлена единая для гражданских аэропортов высота перехода (transition altitude) - 6000 ft (1850 м), определяемая по давлению аэродрома, приведенному к среднему уровню моря по стандартной атмосфере.

Эшелон перехода (Transition Level) устанавливается:

TL80 (2450 м) - при минимальном давлении на территории Республики Беларусь, приведенном к среднему уровню моря по стандартной атмосфере, до 977,2 гПа;

TL90 (2750 м) - при минимальном давлении на территории Республики Беларусь, приведенном к среднему уровню моря по стандартной атмосфере 977,1 гПа и ниже.

Средства связи ОВД:

UMMV_CTR - Minsk-Control - Минск-Контроль - 129.000

Диапазон кодов ответчика: район применения ICAO EUR-E

2001-2077, 5101-5137 (транзит), 6230-6277  (транзит)

Лого Минск
Руководство

Alexander Mikhin

Начальник ЗЦ Беларусь

Maxim Gerasimov

Инструктор
Контакты

Инструкторы РПИ
Alexander Mikhin (Instructor)
Andrei Valasevich * (Controller)
Artem Morozov * (Controller)
Denis Kashin (Instructor)
Maxim Gerasimov (Instructor)
Nick Smirnov (Instructor)
Входит в состав
Западная Россия

Диспетчеры РПИ

Диспетчер Рейтинг Допуски *
Alexander Mikhin Instructor UMMV_CTR
Alexander Petrenko Instructor UMMV_CTR
Andrei Valasevich Controller UMMV_CTR
Artem Morozov Controller UMMV_CTR
Denis Kashin Instructor UMMV_CTR
Dmitriy Kuzmin Controller UMMV_CTR
Maxim Gerasimov Instructor UMMV_CTR
Nick Smirnov Instructor UMMV_CTR
Roman Savel Instructor UMMV_CTR
Aleksey Zgoda Student UMMS_2_TWR*, UMMS_1_TWR*, UMMS_GND
alex kozyro Student 2 UMMS_2_TWR*, UMMS_1_TWR*
Arseny Krutikov Senior Student UMMS_APP
Artyom Somok Student UMMS_GND
Egor Perminov Student UMMS_GND
Ignat Morozov Student 2 UMMS_GND
Maksim Tsyro Student UMMS_GND
Matthew Palusaar Student UMMS_1_TWR*, UMMS_2_TWR*
Maxim Ivantsov Student 2 UMMS_R_APP*
Michael Kostelcev Student 2 UMMS_APP*
tikhon pogrebnyak Student UMMS_GND
Ura Strelkov Student UMMS_GND
Vsevolod Shyshko Student UMMS_2_TWR*, UMMS_1_TWR*

Аэропорты РПИ

ICAO Город Название Погода
UMMS Минск Минск UMMS 190630Z 16004MPS CAVOK 22/18 Q1014 NOSIG
UMBB Брест Брест UMBB 190600Z 21004MPS 7000 NSC 23/17 Q1013 NOSIG
UMII Витебск Восточный UMII 190600Z 20002MPS CAVOK 19/15 Q1015 NOSIG
UMGG Гомель Гомель UMGG 190630Z VRB01MPS CAVOK 24/18 Q1018 NOSIG
UMMG Гродно Гродно UMMG 190620Z 23003MPS 9000 -TSRA BKN030CB OVC066 19/17 Q1012 NOSIG
UMOO Могилёв Могилёв UMOO 190600Z 13002MPS CAVOK 22/16 Q1018 NOSIG